Time;durP1;ratioP1;P1;durP2;ratioP2;P2;SDS_P1;SDS_P2;PMS_P1;PMS_P2;Temp;Humidity;BMP_temperature;BMP_pressure;BME280_temperature;BME280_humidity;BME280_pressure;Samples;Min_cycle;Max_cycle;Signal;HPM_P1;HPM_P2
2024/03/10 00:04:50;;;;;;;42.90;24.70;;;;;;;7.50;62.02;98546.18;232580;204;138538;-65
2024/03/10 00:09:55;;;;;;;41.90;24.90;;;;;;;7.47;61.96;98541.98;232496;204;154615;-66
2024/03/10 00:14:58;;;;;;;43.50;26.10;;;;;;;7.45;61.92;98537.13;232469;197;138277;-64
2024/03/10 00:20:03;;;;;;;46.50;27.60;;;;;;;7.46;61.99;98533.54;232559;203;137931;-66
2024/03/10 00:25:08;;;;;;;45.60;26.60;;;;;;;7.48;61.95;98538.20;232557;203;155858;-66
2024/03/10 00:30:12;;;;;;;47.10;26.90;;;;;;;7.47;62.17;98550.79;232517;203;137761;-66
2024/03/10 00:35:15;;;;;;;44.70;26.50;;;;;;;7.45;62.18;98557.28;232459;201;138088;-65
2024/03/10 00:40:19;;;;;;;44.40;26.60;;;;;;;7.44;62.43;98555.04;232627;204;153120;-65
2024/03/10 00:45:25;;;;;;;42.50;25.60;;;;;;;7.42;62.33;98549.28;232460;203;138510;-64
2024/03/10 00:50:29;;;;;;;44.30;25.40;;;;;;;7.44;62.16;98542.15;232108;204;138602;-67
2024/03/10 00:55:32;;;;;;;41.90;24.60;;;;;;;7.46;61.92;98542.71;232474;197;153444;-65
2024/03/10 01:00:35;;;;;;;41.80;24.10;;;;;;;7.47;61.94;98549.52;232570;200;138259;-65
2024/03/10 01:05:39;;;;;;;40.90;24.70;;;;;;;7.45;61.92;98553.74;232604;201;138349;-65
2024/03/10 01:10:42;;;;;;;42.90;25.70;;;;;;;7.43;62.23;98551.55;232560;204;154411;-65
2024/03/10 01:15:45;;;;;;;43.50;24.90;;;;;;;7.43;62.37;98547.84;232540;204;138005;-65
2024/03/10 01:20:49;;;;;;;38.50;24.00;;;;;;;7.41;62.37;98535.95;232578;204;137750;-65
2024/03/10 01:25:52;;;;;;;43.70;25.70;;;;;;;7.40;62.60;98534.23;232598;197;153383;-66
2024/03/10 01:30:55;;;;;;;40.20;24.60;;;;;;;7.42;62.62;98524.96;232477;197;139163;-67
2024/03/10 01:35:59;;;;;;;43.90;26.00;;;;;;;7.41;62.67;98520.77;232602;200;137475;-65
2024/03/10 01:41:02;;;;;;;48.60;29.80;;;;;;;7.41;62.89;98514.24;232490;204;153901;-66
2024/03/10 01:46:07;;;;;;;51.10;30.70;;;;;;;7.43;63.20;98513.98;232525;204;139267;-66
2024/03/10 01:51:13;;;;;;;49.20;29.30;;;;;;;7.41;63.48;98512.31;232654;204;138977;-66
2024/03/10 01:56:18;;;;;;;50.60;29.60;;;;;;;7.36;63.62;98501.44;232514;204;152957;-66
2024/03/10 02:01:22;;;;;;;41.60;25.40;;;;;;;7.35;63.50;98497.63;232546;200;138047;-65
2024/03/10 02:06:26;;;;;;;45.50;26.60;;;;;;;7.35;63.42;98497.98;232600;200;137531;-66
2024/03/10 02:11:29;;;;;;;42.00;25.00;;;;;;;7.33;63.40;98491.55;232647;196;153719;-65
2024/03/10 02:16:32;;;;;;;43.40;26.00;;;;;;;7.32;63.48;98493.05;232631;204;138174;-65
2024/03/10 02:21:36;;;;;;;40.10;25.70;;;;;;;7.28;63.57;98493.25;232643;204;138375;-65
2024/03/10 02:26:42;;;;;;;40.90;24.90;;;;;;;7.26;63.68;98490.39;232326;204;154698;-65
2024/03/10 02:47:51;;;;;;;42.60;26.00;;;;;;;7.12;63.60;98471.61;232649;200;139606;-65
2024/03/10 02:52:54;;;;;;;38.50;23.50;;;;;;;7.08;63.73;98472.55;232577;200;137362;-65
2024/03/10 02:57:58;;;;;;;37.30;23.00;;;;;;;7.04;63.71;98467.49;232640;204;153248;-64
2024/03/10 03:03:04;;;;;;;40.10;23.60;;;;;;;7.02;63.68;98467.43;232361;204;138220;-64
2024/03/10 03:08:07;;;;;;;37.40;22.90;;;;;;;6.99;63.61;98471.83;232405;204;138733;-65
2024/03/10 03:13:11;;;;;;;42.20;24.50;;;;;;;6.97;63.74;98467.03;232415;200;153157;-65
2024/03/10 03:18:14;;;;;;;35.40;22.60;;;;;;;6.93;63.83;98470.39;232408;201;138020;-65
2024/03/10 03:23:17;;;;;;;37.00;22.40;;;;;;;6.91;63.60;98467.50;232524;204;141458;-65
2024/03/10 03:28:20;;;;;;;34.00;22.00;;;;;;;6.88;63.75;98459.54;232509;204;153256;-64
2024/03/10 03:33:24;;;;;;;34.50;20.80;;;;;;;6.86;63.82;98459.86;232528;197;137145;-65
2024/03/10 03:38:27;;;;;;;35.80;21.60;;;;;;;6.84;63.73;98452.91;232475;196;138624;-64
2024/03/10 03:43:30;;;;;;;37.60;21.80;;;;;;;6.84;63.68;98455.92;232481;204;154683;-64
2024/03/10 03:48:34;;;;;;;36.90;22.00;;;;;;;6.81;64.02;98453.45;232415;197;137921;-65
2024/03/10 03:53:37;;;;;;;35.90;21.70;;;;;;;6.77;64.11;98445.53;232590;197;138730;-64
2024/03/10 03:58:41;;;;;;;39.10;21.20;;;;;;;6.76;64.07;98442.80;232514;197;153230;-65
2024/03/10 04:03:44;;;;;;;36.20;21.10;;;;;;;6.74;64.09;98436.36;232478;203;137122;-65
2024/03/10 04:08:48;;;;;;;37.50;22.90;;;;;;;6.72;64.33;98420.27;232493;204;137981;-65
2024/03/10 04:13:51;;;;;;;37.50;22.40;;;;;;;6.75;64.25;98418.69;232345;200;154326;-64
2024/03/10 04:18:55;;;;;;;36.50;23.20;;;;;;;6.78;64.12;98421.20;232578;197;139123;-65
2024/03/10 04:23:59;;;;;;;34.80;21.20;;;;;;;6.80;63.86;98423.17;232438;198;138449;-65
2024/03/10 04:29:02;;;;;;;33.10;20.70;;;;;;;6.81;63.82;98418.52;232105;201;153111;-66
2024/03/10 04:34:06;;;;;;;33.90;21.20;;;;;;;6.81;63.83;98416.44;232594;200;138726;-67
2024/03/10 04:39:10;;;;;;;37.10;21.00;;;;;;;6.80;63.93;98416.32;232576;205;139021;-66
2024/03/10 04:44:13;;;;;;;33.70;21.60;;;;;;;6.79;63.99;98412.80;232537;204;154411;-65
2024/03/10 04:49:17;;;;;;;33.50;21.30;;;;;;;6.80;63.86;98411.17;232571;204;137809;-66
2024/03/10 04:54:21;;;;;;;30.40;20.60;;;;;;;6.82;63.77;98409.67;232562;203;137733;-67
2024/03/10 04:59:24;;;;;;;29.60;19.50;;;;;;;6.82;63.68;98404.88;232599;200;153321;-66
2024/03/10 05:04:27;;;;;;;30.10;19.20;;;;;;;6.85;63.52;98407.55;232557;203;139874;-65
2024/03/10 05:09:31;;;;;;;27.50;17.90;;;;;;;6.87;63.44;98418.35;232432;201;138033;-66
2024/03/10 05:14:34;;;;;;;27.50;17.80;;;;;;;6.87;63.50;98419.79;232467;204;155354;-65
2024/03/10 05:19:41;;;;;;;28.30;18.20;;;;;;;6.83;63.63;98414.17;232637;200;140690;-65
2024/03/10 05:24:44;;;;;;;26.10;18.00;;;;;;;6.82;63.73;98415.80;232471;200;137325;-65
2024/03/10 05:29:48;;;;;;;28.40;17.60;;;;;;;6.84;63.69;98414.31;232394;201;153270;-65
2024/03/10 05:34:56;;;;;;;26.60;17.40;;;;;;;6.84;63.64;98414.32;232445;200;138635;-64
2024/03/10 05:40:00;;;;;;;28.10;17.60;;;;;;;6.85;63.54;98422.30;232586;200;137775;-65
2024/03/10 05:45:05;;;;;;;256.70;194.50;;;;;;;6.93;68.04;98429.45;232383;197;155426;-68
2024/03/10 05:50:08;;;;;;;121.60;84.00;;;;;;;7.72;68.50;98420.63;232582;204;138270;-66
2024/03/10 05:55:12;;;;;;;206.60;160.00;;;;;;;7.63;64.69;98421.15;232470;201;138877;-66
2024/03/10 06:00:16;;;;;;;28.50;19.10;;;;;;;7.65;64.61;98424.59;232582;200;152802;-66
2024/03/10 06:05:19;;;;;;;32.10;18.80;;;;;;;7.80;63.53;98424.71;232552;204;137941;-69
2024/03/10 06:10:22;;;;;;;28.40;18.10;;;;;;;7.76;62.91;98416.69;232503;204;137506;-68
2024/03/10 06:15:26;;;;;;;29.50;19.40;;;;;;;7.69;62.88;98408.27;232478;197;153327;-67
2024/03/10 06:25:53;;;;;;;32.10;19.70;;;;;;;7.52;63.03;98408.78;232500;204;138078;-68
2024/03/10 06:30:58;;;;;;;27.50;18.60;;;;;;;7.47;63.18;98419.30;232619;197;154028;-68
2024/03/10 06:36:08;;;;;;;27.20;18.60;;;;;;;7.46;63.31;98423.05;232471;201;138935;-68
2024/03/10 06:41:11;;;;;;;25.80;17.70;;;;;;;7.46;63.21;98422.72;232351;198;137872;-68
2024/03/10 06:46:15;;;;;;;25.40;18.20;;;;;;;7.48;63.37;98416.05;232462;204;153312;-68
2024/03/10 06:51:21;;;;;;;28.00;17.50;;;;;;;7.53;63.58;98413.79;232397;204;138139;-68
2024/03/10 06:56:25;;;;;;;28.90;18.60;;;;;;;7.57;63.46;98415.16;232178;204;137080;-70
2024/03/10 07:01:30;;;;;;;25.20;17.40;;;;;;;7.65;63.50;98410.27;232335;198;153896;-75
2024/03/10 07:06:34;;;;;;;27.70;18.30;;;;;;;7.71;63.55;98403.39;232447;204;138050;-72
2024/03/10 07:11:39;;;;;;;25.40;16.90;;;;;;;7.75;63.46;98402.27;232230;200;138347;-73
2024/03/10 07:16:47;;;;;;;29.60;19.50;;;;;;;7.80;63.63;98388.52;232337;200;152979;-70
2024/03/10 07:21:51;;;;;;;243.80;188.90;;;;;;;7.88;63.88;98395.46;232310;204;137520;-67
2024/03/10 07:26:54;;;;;;;114.30;79.20;;;;;;;8.00;63.94;98399.49;232598;203;137994;-67
2024/03/10 07:31:58;;;;;;;35.90;24.30;;;;;;;8.11;63.77;98394.73;232440;202;153399;-66
2024/03/10 07:37:02;;;;;;;25.80;17.30;;;;;;;8.25;63.84;98391.89;232628;200;137066;-69
2024/03/10 07:42:06;;;;;;;23.00;15.30;;;;;;;8.36;63.18;98388.79;232491;203;137705;-68
2024/03/10 07:47:10;;;;;;;20.70;15.60;;;;;;;8.45;62.86;98381.64;232333;201;153171;-67
2024/03/10 07:52:14;;;;;;;23.20;14.60;;;;;;;8.50;62.45;98377.42;232108;204;137545;-66
2024/03/10 07:57:18;;;;;;;21.00;15.20;;;;;;;8.55;62.51;98376.94;232406;203;138015;-66
2024/03/10 08:02:21;;;;;;;21.90;16.00;;;;;;;8.64;62.50;98372.85;232073;202;153430;-67
2024/03/10 08:07:25;;;;;;;287.60;205.80;;;;;;;8.73;62.84;98369.93;232202;197;139818;-65
2024/03/10 08:12:29;;;;;;;26.30;19.00;;;;;;;8.94;62.93;98369.60;232280;197;137696;-65
2024/03/10 08:17:33;;;;;;;21.90;15.00;;;;;;;9.05;62.19;98359.89;232590;201;153312;-67
2024/03/10 08:22:36;;;;;;;23.10;15.80;;;;;;;9.09;61.82;98362.77;232583;201;138089;-67
2024/03/10 08:27:40;;;;;;;20.70;14.20;;;;;;;9.13;61.68;98366.25;232539;204;142046;-67
2024/03/10 08:32:43;;;;;;;19.70;14.00;;;;;;;9.18;61.88;98358.63;232582;196;154120;-66
2024/03/10 08:37:47;;;;;;;23.00;15.20;;;;;;;9.28;62.10;98351.41;232257;204;138631;-64
2024/03/10 08:42:52;;;;;;;20.80;14.10;;;;;;;9.41;62.16;98346.50;232019;197;138689;-63
2024/03/10 08:47:55;;;;;;;58.70;43.90;;;;;;;9.59;62.10;98345.23;232544;200;154524;-63
2024/03/10 08:52:59;;;;;;;36.00;24.00;;;;;;;9.86;62.75;98337.85;232314;200;137986;-64
2024/03/10 08:58:03;;;;;;;19.80;14.70;;;;;;;10.08;61.74;98339.50;232509;204;138169;-60
2024/03/10 09:03:07;;;;;;;18.40;13.20;;;;;;;10.25;61.28;98336.52;232474;200;153401;-60
2024/03/10 09:08:11;;;;;;;21.60;14.60;;;;;;;10.46;60.91;98324.55;232430;204;138365;-59
2024/03/10 09:13:14;;;;;;;16.80;12.70;;;;;;;10.65;60.64;98323.88;232406;198;137786;-61
2024/03/10 09:18:17;;;;;;;18.20;12.60;;;;;;;10.83;60.26;98325.52;232567;204;153503;-61
2024/03/10 09:23:21;;;;;;;18.20;12.30;;;;;;;11.04;60.02;98318.25;232457;203;138624;-61
2024/03/10 09:28:25;;;;;;;17.20;11.90;;;;;;;11.25;60.11;98307.45;232521;201;137842;-61
2024/03/10 09:33:29;;;;;;;15.60;11.20;;;;;;;11.50;59.85;98306.45;232294;197;153897;-64
2024/03/10 09:38:33;;;;;;;307.30;212.20;;;;;;;11.74;59.65;98302.92;232483;204;137804;-61
2024/03/10 09:43:38;;;;;;;176.70;154.90;;;;;;;12.21;60.34;98301.86;232542;204;138164;-62
2024/03/10 09:48:43;;;;;;;16.90;12.80;;;;;;;12.50;58.60;98294.94;232475;201;153273;-63
2024/03/10 09:53:47;;;;;;;13.50;10.10;;;;;;;12.56;57.41;98306.35;232408;204;138215;-62
2024/03/10 09:58:58;;;;;;;14.90;9.90;;;;;;;12.57;56.89;98306.83;232554;204;139216;-63
2024/03/10 10:04:06;;;;;;;11.70;9.30;;;;;;;12.62;56.77;98297.88;232506;196;154376;-69
2024/03/10 10:09:10;;;;;;;13.20;9.00;;;;;;;12.75;56.90;98290.90;232551;196;139618;-62
2024/03/10 10:14:15;;;;;;;12.50;9.70;;;;;;;12.93;56.76;98287.56;232487;204;137377;-66
2024/03/10 10:19:20;;;;;;;467.70;374.90;;;;;;;13.06;56.44;98287.80;232077;200;153100;-63
2024/03/10 10:24:24;;;;;;;22.80;16.50;;;;;;;13.13;56.36;98277.59;232304;200;138877;-63
2024/03/10 10:29:27;;;;;;;15.20;10.40;;;;;;;13.14;56.26;98266.45;232246;197;138712;-64
2024/03/10 10:34:33;;;;;;;14.80;9.90;;;;;;;13.16;56.46;98267.83;232357;200;153220;-62
2024/03/10 10:39:38;;;;;;;;;;;;;;;13.18;56.51;98265.40;232428;201;138477;-62
2024/03/10 10:44:42;;;;;;;12.80;8.30;;;;;;;13.20;56.24;98257.17;232373;200;138336;-62
2024/03/10 10:49:45;;;;;;;139.10;115.10;;;;;;;13.24;56.28;98234.45;232279;200;153181;-61
2024/03/10 10:54:49;;;;;;;17.50;12.20;;;;;;;13.36;56.59;98233.77;232311;201;139376;-62
2024/03/10 10:59:52;;;;;;;10.90;7.90;;;;;;;13.45;55.97;98238.33;232420;200;137958;-61
2024/03/10 11:04:58;;;;;;;195.60;134.90;;;;;;;13.48;55.85;98238.91;232357;200;153631;-62
2024/03/10 11:10:40;;;;;;;31.00;21.70;;;;;;;13.56;55.87;98233.48;232294;200;138119;-63
2024/03/10 11:15:44;;;;;;;10.90;7.60;;;;;;;13.63;55.50;98226.59;232246;204;137579;-62
2024/03/10 11:20:50;;;;;;;11.80;7.40;;;;;;;13.69;54.61;98226.78;232452;204;153015;-61
2024/03/10 11:25:54;;;;;;;9.10;6.60;;;;;;;13.78;54.58;98220.61;232517;204;138462;-64
2024/03/10 11:30:57;;;;;;;13.10;8.30;;;;;;;13.92;55.30;98226.33;232403;204;139088;-62
2024/03/10 11:36:01;;;;;;;7.60;6.10;;;;;;;14.05;53.44;98222.36;232059;203;154822;-63
2024/03/10 11:41:09;;;;;;;8.70;4.90;;;;;;;14.09;52.73;98218.75;232090;203;142215;-66
2024/03/10 11:46:22;;;;;;;7.20;4.60;;;;;;;14.10;51.49;98215.68;232282;204;138611;-65
2024/03/10 11:51:31;;;;;;;6.70;4.00;;;;;;;14.12;51.15;98209.57;232460;200;153367;-66
2024/03/10 11:56:34;;;;;;;32.40;21.70;;;;;;;14.15;50.63;98200.58;232243;203;141857;-62
2024/03/10 12:01:39;;;;;;;7.10;4.90;;;;;;;14.22;51.24;98202.96;232368;200;139281;-61
2024/03/10 12:06:43;;;;;;;93.40;74.60;;;;;;;14.26;51.38;98205.27;232338;203;153965;-62
2024/03/10 12:11:46;;;;;;;9.30;4.60;;;;;;;14.29;51.29;98203.94;232226;201;138664;-62
2024/03/10 12:16:50;;;;;;;5.10;3.60;;;;;;;14.31;51.00;98197.70;232131;204;138843;-61
2024/03/10 12:21:53;;;;;;;5.10;3.40;;;;;;;14.37;51.33;98190.03;232257;196;154715;-62
2024/03/10 12:27:03;;;;;;;6.50;3.60;;;;;;;14.42;51.11;98192.25;232275;203;138360;-63
2024/03/10 12:32:08;;;;;;;6.90;3.30;;;;;;;14.51;50.85;98187.30;232294;204;138152;-63
2024/03/10 12:37:12;;;;;;;31.30;22.20;;;;;;;14.63;51.01;98187.13;232242;203;153772;-57
2024/03/10 12:42:15;;;;;;;10.00;6.00;;;;;;;15.05;55.69;98177.67;232293;200;138074;-63
2024/03/10 12:47:19;;;;;;;8.80;5.30;;;;;;;15.30;51.97;98176.39;232414;201;138730;-63
2024/03/10 12:52:22;;;;;;;9.20;5.50;;;;;;;15.18;51.00;98179.98;232408;201;153361;-63
2024/03/10 12:57:27;;;;;;;7.50;5.10;;;;;;;15.13;50.89;98181.70;232395;204;137794;-63
2024/03/10 13:02:30;;;;;;;8.90;5.30;;;;;;;15.09;50.37;98173.21;232430;203;137994;-62
2024/03/10 13:07:33;;;;;;;8.90;5.20;;;;;;;15.13;50.52;98173.88;232419;200;155272;-62
2024/03/10 13:12:45;;;;;;;6.90;5.30;;;;;;;15.25;50.48;98169.17;229766;208;733623;-63
2024/03/10 13:17:48;;;;;;;10.00;5.40;;;;;;;15.21;50.21;98153.60;231236;208;136805;-63
2024/03/10 13:22:52;;;;;;;7.10;5.40;;;;;;;15.20;50.19;98154.84;231318;201;136361;-66
2024/03/10 13:27:55;;;;;;;8.60;5.40;;;;;;;15.17;50.27;98152.45;231249;208;148569;-64
2024/03/10 13:32:59;;;;;;;10.60;5.80;;;;;;;15.11;50.65;98152.47;231310;201;136771;-65
2024/03/10 13:38:03;;;;;;;7.50;5.20;;;;;;;15.11;50.96;98152.77;232146;202;137389;-66
2024/03/10 13:43:07;;;;;;;6.60;5.40;;;;;;;15.10;50.85;98148.44;231959;202;147713;-65
2024/03/10 13:48:10;;;;;;;7.30;5.10;;;;;;;15.03;50.99;98142.15;232022;197;137234;-65
2024/03/10 13:53:13;;;;;;;7.00;5.20;;;;;;;15.02;51.01;98132.39;232135;197;136053;-66
2024/03/10 13:58:16;;;;;;;11.10;5.50;;;;;;;15.02;51.19;98128.52;232119;201;147656;-64
2024/03/10 14:03:20;;;;;;;7.30;5.40;;;;;;;14.96;51.33;98135.11;231966;198;136587;-66
2024/03/10 14:08:23;;;;;;;6.60;5.00;;;;;;;14.92;51.54;98132.82;232016;198;136235;-63
2024/03/10 14:13:29;;;;;;;19.70;15.60;;;;;;;14.91;52.19;98136.10;231987;205;149501;-64
2024/03/10 14:18:34;;;;;;;7.10;5.50;;;;;;;14.98;51.75;98132.83;231898;205;137889;-65
2024/03/10 14:23:40;;;;;;;8.80;5.30;;;;;;;14.93;51.54;98124.17;231886;198;136679;-65
2024/03/10 14:28:46;;;;;;;8.60;5.70;;;;;;;14.93;51.64;98125.36;231902;205;149540;-66
2024/03/10 14:33:52;;;;;;;9.00;5.50;;;;;;;14.89;51.63;98125.70;231633;198;136461;-61
2024/03/10 14:38:56;;;;;;;8.40;6.10;;;;;;;14.85;51.46;98125.95;231957;205;136993;-66
2024/03/10 14:44:00;;;;;;;9.80;5.80;;;;;;;14.76;51.45;98131.42;232024;198;149713;-62
2024/03/10 14:49:08;;;;;;;;;;;;;;;14.73;51.89;98140.65;231913;205;137339;-62
2024/03/10 14:54:12;;;;;;;21.10;16.90;;;;;;;14.65;52.20;98136.27;232028;198;133462;-62
2024/03/10 14:59:15;;;;;;;10.60;6.80;;;;;;;14.63;52.32;98146.27;231856;198;149357;-61
2024/03/10 15:04:18;;;;;;;9.90;6.00;;;;;;;14.57;52.26;98145.86;231909;205;136348;-61
2024/03/10 15:09:21;;;;;;;11.00;6.30;;;;;;;14.48;52.44;98150.52;231913;198;136132;-61
2024/03/10 15:14:26;;;;;;;11.50;7.20;;;;;;;14.39;52.66;98153.75;231930;198;149485;-61
2024/03/10 15:19:29;;;;;;;10.10;6.80;;;;;;;14.30;52.89;98154.63;231901;198;137774;-64
2024/03/10 15:24:33;;;;;;;23.40;12.50;;;;;;;14.23;52.90;98155.05;231821;201;137260;-64
2024/03/10 15:29:41;;;;;;;10.80;6.80;;;;;;;14.16;52.93;98150.16;231861;198;150696;-63
2024/03/10 15:34:44;;;;;;;10.50;5.30;;;;;;;14.07;53.25;98147.46;231848;198;137017;-64
2024/03/10 15:39:47;;;;;;;9.40;5.60;;;;;;;14.00;53.34;98141.09;231933;205;137199;-62
2024/03/10 15:44:50;;;;;;;9.10;5.00;;;;;;;13.89;53.21;98150.11;231890;205;149399;-62
2024/03/10 15:49:53;;;;;;;8.10;4.70;;;;;;;13.72;53.58;98151.28;231910;198;138491;-65
2024/03/10 15:54:57;;;;;;;8.90;4.50;;;;;;;13.54;53.96;98157.86;232162;205;137102;-61
2024/03/10 16:00:00;;;;;;;29.80;22.60;;;;;;;13.42;54.50;98157.88;232080;197;149552;-61
2024/03/10 16:05:25;;;;;;;7.60;5.70;;;;;;;13.37;55.05;98160.10;231913;198;138643;-62
2024/03/10 16:10:29;;;;;;;9.20;5.60;;;;;;;13.36;55.00;98163.36;232000;198;137771;-62
2024/03/10 16:15:35;;;;;;;8.00;5.90;;;;;;;13.30;55.08;98165.68;232296;209;150524;-63
2024/03/10 16:20:41;;;;;;;8.80;5.90;;;;;;;13.25;55.27;98167.55;232046;202;137235;-61
2024/03/10 16:25:49;;;;;;;10.30;5.50;;;;;;;13.19;55.52;98170.73;232085;199;137926;-62
2024/03/10 16:30:52;;;;;;;28.60;20.80;;;;;;;13.14;55.60;98181.52;231928;198;149586;-61
2024/03/10 16:35:55;;;;;;;10.20;7.70;;;;;;;13.08;56.07;98182.17;231856;205;137274;-61
2024/03/10 16:40:59;;;;;;;7.40;5.80;;;;;;;12.95;56.22;98178.79;232040;205;136842;-60
2024/03/10 16:46:03;;;;;;;11.10;6.80;;;;;;;12.82;56.43;98177.10;232068;205;150233;-61
2024/03/10 16:51:08;;;;;;;11.50;6.10;;;;;;;12.74;56.72;98180.81;232001;201;137522;-61
2024/03/10 16:56:12;;;;;;;;;;;;;;;12.69;57.00;98184.39;232030;198;137944;-60
2024/03/10 17:01:15;;;;;;;8.80;6.30;;;;;;;12.62;57.04;98187.52;232207;205;150224;-59
2024/03/10 17:06:19;;;;;;;11.20;6.90;;;;;;;12.52;57.37;98194.36;232053;205;138200;-61
2024/03/10 17:11:22;;;;;;;9.30;6.00;;;;;;;12.49;57.63;98192.31;232139;198;138211;-61
2024/03/10 17:16:25;;;;;;;8.80;6.70;;;;;;;12.45;57.76;98193.02;232120;197;149707;-60
2024/03/10 17:21:28;;;;;;;8.20;6.70;;;;;;;12.41;58.07;98194.05;232042;204;136816;-61
2024/03/10 17:26:32;;;;;;;8.70;6.60;;;;;;;12.40;58.16;98197.02;231810;203;137491;-60
2024/03/10 17:31:36;;;;;;;10.10;7.40;;;;;;;12.35;58.40;98192.61;232114;201;149449;-60
2024/03/10 17:36:41;;;;;;;13.70;8.40;;;;;;;12.31;58.69;98194.13;231992;205;136971;-60
2024/03/10 17:41:44;;;;;;;12.10;8.90;;;;;;;12.28;58.96;98192.46;232074;205;137883;-61
2024/03/10 17:46:48;;;;;;;16.10;9.80;;;;;;;12.24;59.18;98190.66;232171;198;149666;-61
2024/03/10 17:51:51;;;;;;;17.30;10.00;;;;;;;12.21;59.35;98189.66;232147;197;136981;-61
2024/03/10 17:56:54;;;;;;;14.90;9.30;;;;;;;12.18;59.44;98188.33;232029;197;138170;-61
2024/03/10 18:01:59;;;;;;;12.80;8.80;;;;;;;12.16;59.60;98192.55;232247;197;150512;-60
2024/03/10 18:07:05;;;;;;;392.70;315.30;;;;;;;12.16;59.76;98194.35;232068;205;137434;-61
2024/03/10 18:12:10;;;;;;;24.20;17.30;;;;;;;12.22;60.12;98186.55;232110;202;138370;-62
2024/03/10 18:17:13;;;;;;;13.60;9.40;;;;;;;12.19;59.73;98192.38;232141;198;149563;-62
2024/03/10 18:22:17;;;;;;;13.10;8.60;;;;;;;12.13;59.91;98191.63;232208;202;137737;-60
2024/03/10 18:27:21;;;;;;;15.30;8.80;;;;;;;12.05;60.16;98199.52;232226;205;136851;-61
2024/03/10 18:32:25;;;;;;;22.20;11.60;;;;;;;11.97;60.34;98202.09;232260;198;149897;-61
2024/03/10 18:37:28;;;;;;;23.60;12.00;;;;;;;11.96;60.51;98199.72;232000;205;137137;-62
2024/03/10 18:42:31;;;;;;;21.00;11.70;;;;;;;11.92;60.51;98202.87;232175;198;138118;-61
2024/03/10 18:47:35;;;;;;;21.80;11.00;;;;;;;11.87;60.78;98198.36;232160;197;150175;-63
2024/03/10 18:52:42;;;;;;;22.00;11.70;;;;;;;11.83;61.17;98197.91;232092;205;136890;-61
2024/03/10 18:57:45;;;;;;;15.60;10.30;;;;;;;11.77;61.74;98195.73;232083;205;136831;-61
2024/03/10 19:02:49;;;;;;;14.90;10.20;;;;;;;11.75;62.22;98201.57;232013;197;150613;-63
2024/03/10 19:07:53;;;;;;;14.80;9.10;;;;;;;11.75;62.28;98203.84;231928;201;138328;-62
2024/03/10 19:12:59;;;;;;;13.80;8.90;;;;;;;11.69;62.69;98210.21;232016;205;139095;-63
2024/03/10 19:18:03;;;;;;;;;;;;;;;11.73;63.07;98211.14;232256;205;149471;-61
2024/03/10 19:23:07;;;;;;;21.20;15.70;;;;;;;11.77;63.76;98212.79;231866;198;133748;-62
2024/03/10 19:28:11;;;;;;;15.60;9.80;;;;;;;11.76;64.16;98209.87;232047;202;140517;-61
2024/03/10 19:33:14;;;;;;;300.30;244.90;;;;;;;11.68;64.49;98211.60;232245;204;150732;-62
2024/03/10 19:38:18;;;;;;;33.60;20.80;;;;;;;11.60;65.05;98213.93;232230;197;137584;-61
2024/03/10 19:43:21;;;;;;;11.80;9.20;;;;;;;11.53;65.65;98214.52;232026;202;137949;-61
2024/03/10 19:48:24;;;;;;;15.50;9.50;;;;;;;11.43;66.14;98213.52;232359;201;149609;-62
2024/03/10 19:53:28;;;;;;;14.10;9.50;;;;;;;11.42;66.64;98215.21;232161;202;137251;-61
2024/03/10 19:58:32;;;;;;;11.50;8.90;;;;;;;11.43;66.90;98218.32;232286;204;136647;-61
2024/03/10 20:03:40;;;;;;;154.00;124.50;;;;;;;11.40;67.06;98213.45;232214;201;149599;-58
2024/03/10 20:08:44;;;;;;;13.10;9.00;;;;;;;11.38;67.58;98213.04;232226;197;137864;-63
2024/03/10 20:13:49;;;;;;;13.70;9.40;;;;;;;11.37;67.53;98211.56;232163;198;136905;-62
2024/03/10 20:18:54;;;;;;;13.10;8.90;;;;;;;11.27;67.95;98214.29;232279;201;149895;-60
2024/03/10 20:23:58;;;;;;;12.30;8.30;;;;;;;11.22;68.30;98215.23;232184;205;137221;-61
2024/03/10 20:29:02;;;;;;;12.20;9.00;;;;;;;11.20;68.64;98210.02;232335;204;136973;-60
2024/03/10 20:34:05;;;;;;;13.90;9.50;;;;;;;11.26;68.91;98210.61;232304;197;149621;-61
2024/03/10 20:39:14;;;;;;;11.80;9.00;;;;;;;11.30;69.11;98217.39;232115;201;136742;-60
2024/03/10 20:44:17;;;;;;;12.10;9.10;;;;;;;11.29;69.35;98213.20;232382;197;137555;-60
2024/03/10 20:49:20;;;;;;;12.00;8.70;;;;;;;11.30;69.45;98210.30;232280;204;149737;-61
2024/03/10 20:54:23;;;;;;;11.20;7.60;;;;;;;11.27;69.75;98206.44;232338;204;139094;-60
2024/03/10 20:59:27;;;;;;;11.20;8.50;;;;;;;11.22;70.04;98207.74;232410;201;138274;-61
2024/03/10 21:04:30;;;;;;;11.70;8.10;;;;;;;11.26;70.03;98209.89;232317;197;149440;-59
2024/03/10 21:09:33;;;;;;;11.00;8.80;;;;;;;11.23;70.10;98203.00;232091;201;136600;-61
2024/03/10 21:14:37;;;;;;;10.50;8.30;;;;;;;11.18;70.13;98203.80;232273;197;137412;-59
2024/03/10 21:19:40;;;;;;;11.80;7.90;;;;;;;11.14;70.28;98197.91;232051;198;149759;-59
2024/03/10 21:24:44;;;;;;;10.90;8.50;;;;;;;11.09;70.45;98196.47;232275;201;137821;-60
2024/03/10 21:29:47;;;;;;;13.10;9.30;;;;;;;11.06;70.44;98197.11;232309;205;137230;-60
2024/03/10 21:34:50;;;;;;;12.30;8.60;;;;;;;11.02;70.46;98200.74;232137;205;149590;-60
2024/03/10 21:39:55;;;;;;;12.80;8.70;;;;;;;11.03;70.35;98198.02;232149;197;140355;-60
2024/03/10 21:44:58;;;;;;;11.30;8.10;;;;;;;10.99;70.23;98195.63;232125;201;137216;-60
2024/03/10 21:50:02;;;;;;;13.80;8.70;;;;;;;10.92;70.33;98198.52;231958;205;154086;-59
2024/03/10 21:55:07;;;;;;;10.30;7.70;;;;;;;10.80;70.50;98197.27;232244;197;138054;-60
2024/03/10 22:00:14;;;;;;;11.70;7.70;;;;;;;10.80;70.60;98196.59;232108;198;138716;-61
2024/03/10 22:05:19;;;;;;;11.60;8.20;;;;;;;10.86;70.77;98193.65;232072;201;151406;-61
2024/03/10 22:10:23;;;;;;;14.90;8.50;;;;;;;10.83;70.54;98191.05;232132;203;138161;-61
2024/03/10 22:15:26;;;;;;;14.80;8.80;;;;;;;10.80;70.51;98188.83;232237;204;137353;-61
2024/03/10 22:20:30;;;;;;;11.70;8.10;;;;;;;10.73;70.43;98190.55;232178;205;151663;-60
2024/03/10 22:25:33;;;;;;;12.00;8.50;;;;;;;10.67;70.48;98191.18;232093;198;136706;-61
2024/03/10 22:30:37;;;;;;;12.40;8.50;;;;;;;10.62;70.44;98191.41;232277;204;136922;-60
2024/03/10 22:35:40;;;;;;;11.40;8.10;;;;;;;10.52;70.27;98187.15;232285;204;151616;-60
2024/03/10 22:40:43;;;;;;;14.60;8.20;;;;;;;10.46;70.45;98195.27;232210;201;137412;-60
2024/03/10 22:45:46;;;;;;;11.20;8.20;;;;;;;10.49;70.36;98194.20;232104;197;138112;-61
2024/03/10 22:50:50;;;;;;;14.20;8.50;;;;;;;10.47;70.27;98184.42;232313;201;152348;-60
2024/03/10 22:55:53;;;;;;;12.40;8.40;;;;;;;10.44;70.46;98173.64;232240;204;139062;-60
2024/03/10 23:00:57;;;;;;;13.00;8.40;;;;;;;10.41;70.62;98168.14;232197;197;137972;-61
2024/03/10 23:06:00;;;;;;;13.30;8.30;;;;;;;10.40;70.78;98170.86;232316;205;151937;-61
2024/03/10 23:11:03;;;;;;;12.30;8.30;;;;;;;10.34;70.93;98168.52;232218;201;136964;-60
2024/03/10 23:16:07;;;;;;;9.50;7.30;;;;;;;10.28;71.15;98175.21;232302;204;137427;-60
2024/03/10 23:21:11;;;;;;;13.80;8.60;;;;;;;10.25;71.23;98168.80;232269;201;151417;-59
2024/03/10 23:26:14;;;;;;;12.10;8.00;;;;;;;10.27;71.47;98162.31;232082;198;137340;-59
2024/03/10 23:31:18;;;;;;;11.70;8.10;;;;;;;10.29;71.43;98162.35;232277;198;138117;-59
2024/03/10 23:36:22;;;;;;;11.90;8.50;;;;;;;10.24;71.35;98157.19;232349;204;151408;-60
2024/03/10 23:41:25;;;;;;;12.60;8.10;;;;;;;10.21;71.47;98161.15;232329;204;137423;-59